Lucas, Kentucky
Current Conditions -  °F | °C
As of 7:35 AM on Monday 24 Nov 2014 (Local Time) from KGLW Reporting Station
Scattered Clouds Scattered Clouds  
Wind Chill: 61°   Ceiling: Unl
Heat Index: 61°   Visibility: 10mi
Dew Point: 48°   Wind: 16mph
Humidity: 64%   Direction: 220°SW
Pressure: 29.52"   Gusts: 28mph
Location:  36.89°N, 86.04°W
Report Text: KGLW 241335Z AUTO 22014G24KT 10SM SCT038 SCT075 16/09 A2952 RMK AO2 T01590091
Loading
Personal Weather Stations






























Interactive Weather Map New forecast layout! Learn more

10-Day Weather Forecast

Advertisements
Track Severe Weather on mobile